1966 FAITH (1966233N13340)


On this page: IBTrACS data - Map and Plots - Positions - Intensities - Original source data

Summary

Start Aug 21
End Sep 7
Basin NA
LMI 110 kt
Sources hurdat_atl
atcf
In WMO? Yes
Previous storm 1966 WINNIE (WP)
Previous in basin 1966 DOROTHY (NA)
Concurrent storms 1966 DOLORES (EP)
1966 VIOLA (WP)
1966 WINNIE (WP)
1966 FAITH (NA)
1966 BETTY (WP)
1966 EILEEN (EP)
1966 ALICE (WP)
1966 CORA (WP)
1966 19W (WP)
1966 20W (WP)
1966 GRETA (NA)
1966 09B (NI)
1966 DORIS (WP)
1966 FRANCESCA (EP)
Next in basin 1966 GRETA (NA)
Next storm 1966 BETTY (WP)

top of page IBTrACS Data: File Access

No storm imagery available

top of page Plots:

Map of storm track will not appear if FTP is down
Time series of cyclone Maximum Sustained Wind will not appear if FTP is down
Time series of cyclone Minimum Central Pressure will not appear if FTP is down

top of page Track Data:Position

hurdat_atl atcf
Date Lat Lon Lat Lon
1966-08-21 00:00:00 12.9 -20.5 12.9 -20.5
1966-08-21 06:00:00 13.3 -22.3 13.3 -22.3
1966-08-21 12:00:00 13.7 -24.2 13.7 -24.2
1966-08-21 18:00:00 14.0 -26.1 14.0 -26.1
1966-08-22 00:00:00 14.3 -28.0 14.3 -28.0
1966-08-22 06:00:00 14.6 -29.9 14.6 -29.9
1966-08-22 12:00:00 14.9 -31.9 14.9 -31.9
1966-08-22 18:00:00 15.0 -33.9 15.0 -33.9
1966-08-23 00:00:00 15.1 -35.8 15.1 -35.8
1966-08-23 06:00:00 15.2 -37.8 15.2 -37.8
1966-08-23 12:00:00 15.2 -39.8 15.2 -39.8
1966-08-23 18:00:00 15.3 -41.8 15.3 -41.8
1966-08-24 00:00:00 15.3 -43.8 15.3 -43.8
1966-08-24 06:00:00 15.3 -45.7 15.3 -45.7
1966-08-24 12:00:00 15.3 -47.7 15.3 -47.7
1966-08-24 18:00:00 15.6 -49.8 15.6 -49.8
1966-08-25 00:00:00 16.0 -52.0 16.0 -52.0
1966-08-25 06:00:00 16.3 -54.1 16.3 -54.1
1966-08-25 12:00:00 16.6 -56.2 16.6 -56.2
1966-08-25 18:00:00 16.9 -57.9 16.9 -57.9
1966-08-26 00:00:00 17.3 -59.4 17.3 -59.4
1966-08-26 06:00:00 17.7 -60.8 17.7 -60.8
1966-08-26 12:00:00 18.3 -62.2 18.3 -62.2
1966-08-26 18:00:00 19.0 -63.7 19.0 -63.7
1966-08-27 00:00:00 19.7 -65.1 19.7 -65.1
hurdat_atl atcf
1966-08-27 06:00:00 20.4 -66.3 20.4 -66.3
1966-08-27 12:00:00 21.0 -67.5 21.0 -67.5
1966-08-27 18:00:00 21.6 -68.7 21.6 -68.7
1966-08-28 00:00:00 22.1 -69.8 22.1 -69.8
1966-08-28 06:00:00 22.7 -70.5 22.7 -70.5
1966-08-28 12:00:00 23.3 -70.7 23.3 -70.7
1966-08-28 18:00:00 23.7 -70.9 23.7 -70.9
1966-08-29 00:00:00 24.0 -71.0 24.0 -71.0
1966-08-29 06:00:00 24.4 -71.1 24.4 -71.1
1966-08-29 12:00:00 24.9 -71.3 24.9 -71.3
1966-08-29 18:00:00 25.3 -71.5 25.3 -71.5
1966-08-30 00:00:00 25.8 -71.8 25.8 -71.8
1966-08-30 06:00:00 26.3 -72.1 26.3 -72.1
1966-08-30 12:00:00 26.9 -72.4 26.9 -72.4
1966-08-30 18:00:00 27.4 -72.7 27.4 -72.7
1966-08-31 00:00:00 28.0 -73.0 28.0 -73.0
1966-08-31 06:00:00 28.5 -73.3 28.5 -73.3
1966-08-31 12:00:00 29.3 -73.6 29.3 -73.6
1966-08-31 18:00:00 30.5 -73.3 30.5 -73.3
1966-09-01 00:00:00 31.7 -72.4 31.7 -72.4
1966-09-01 06:00:00 32.9 -71.4 32.9 -71.4
1966-09-01 12:00:00 34.0 -70.3 34.0 -70.3
1966-09-01 18:00:00 35.0 -69.2 35.0 -69.2
1966-09-02 00:00:00 35.9 -68.0 35.9 -68.0
hurdat_atl atcf
1966-09-02 06:00:00 36.6 -66.8 36.6 -66.8
1966-09-02 12:00:00 37.0 -65.2 37.0 -65.2
1966-09-02 18:00:00 37.1 -63.0 37.1 -63.0
1966-09-03 00:00:00 37.1 -60.1 37.1 -60.1
1966-09-03 06:00:00 37.5 -57.0 37.5 -57.0
1966-09-03 12:00:00 38.3 -54.0 38.3 -54.0
1966-09-03 18:00:00 39.7 -51.1 39.7 -51.1
1966-09-04 00:00:00 41.9 -48.1 41.9 -48.1
1966-09-04 06:00:00 44.7 -44.9 44.7 -44.9
1966-09-04 12:00:00 47.5 -41.5 47.5 -41.5
1966-09-04 18:00:00 50.2 -37.8 50.2 -37.8
1966-09-05 00:00:00 52.8 -33.8 52.8 -33.8
1966-09-05 06:00:00 55.2 -29.4 55.2 -29.4
1966-09-05 12:00:00 57.3 -24.5 57.3 -24.5
1966-09-05 18:00:00 58.7 -19.4 58.7 -19.4
1966-09-06 00:00:00 60.4 -12.0 60.4 -12.0
1966-09-06 06:00:00 61.1 -6.0 61.1 -6.0
1966-09-06 12:00:00 62.5 -3.0 62.5 -3.0
1966-09-06 18:00:00 62.6 2.5 62.6
1966-09-07 00:00:00 62.9 7.0 62.9

top of pageTrack Data:Intensity

hurdat_atl atcf
Date Wind Pres Wind Pres
1966-08-21 00:00:00 25. 25.
1966-08-21 06:00:00 25. 25.
1966-08-21 12:00:00 25. 25.
1966-08-21 18:00:00 25. 1006. 25. 1006.
1966-08-22 00:00:00 35. 35.
1966-08-22 06:00:00 35. 35.
1966-08-22 12:00:00 35. 35.
1966-08-22 18:00:00 40. 40.
1966-08-23 00:00:00 50. 50.
1966-08-23 06:00:00 50. 50.
1966-08-23 12:00:00 65. 65.
1966-08-23 18:00:00 65. 65.
1966-08-24 00:00:00 80. 80.
1966-08-24 06:00:00 80. 80.
1966-08-24 12:00:00 80. 992. 80. 992.
1966-08-24 18:00:00 85. 85.
1966-08-25 00:00:00 85. 993. 85. 993.
1966-08-25 06:00:00 90. 995. 90. 995.
1966-08-25 12:00:00 90. 986. 90. 986.
1966-08-25 18:00:00 90. 990. 90. 990.
1966-08-26 00:00:00 90. 90.
1966-08-26 06:00:00 85. 997. 85. 997.
1966-08-26 12:00:00 80. 995. 80. 995.
1966-08-26 18:00:00 75. 75.
1966-08-27 00:00:00 75. 987. 75. 987.
hurdat_atl atcf
1966-08-27 06:00:00 75. 993. 75. 993.
1966-08-27 12:00:00 75. 989. 75. 989.
1966-08-27 18:00:00 75. 983. 75. 983.
1966-08-28 00:00:00 80. 979. 80. 979.
1966-08-28 06:00:00 90. 973. 90. 973.
1966-08-28 12:00:00 110. 962. 110. 962.
1966-08-28 18:00:00 110. 957. 110. 957.
1966-08-29 00:00:00 105. 956. 105. 956.
1966-08-29 06:00:00 100. 960. 100. 960.
1966-08-29 12:00:00 100. 963. 100. 963.
1966-08-29 18:00:00 100. 963. 100. 963.
1966-08-30 00:00:00 95. 963. 95. 963.
1966-08-30 06:00:00 95. 970. 95. 970.
1966-08-30 12:00:00 95. 966. 95. 966.
1966-08-30 18:00:00 90. 90.
1966-08-31 00:00:00 90. 967. 90. 967.
1966-08-31 06:00:00 90. 90.
1966-08-31 12:00:00 90. 988. 90. 988.
1966-08-31 18:00:00 90. 963. 90. 963.
1966-09-01 00:00:00 90. 90.
1966-09-01 06:00:00 95. 963. 95. 963.
1966-09-01 12:00:00 95. 963. 95. 963.
1966-09-01 18:00:00 95. 957. 95. 957.
1966-09-02 00:00:00 95. 958. 95. 958.
hurdat_atl atcf
1966-09-02 06:00:00 95. 95.
1966-09-02 12:00:00 95. 95.
1966-09-02 18:00:00 90. 90.
1966-09-03 00:00:00 90. 90.
1966-09-03 06:00:00 90. 950. 90. 950.
1966-09-03 12:00:00 90. 90.
1966-09-03 18:00:00 90. 90.
1966-09-04 00:00:00 90. 90.
1966-09-04 06:00:00 90. 90.
1966-09-04 12:00:00 90. 954. 90. 954.
1966-09-04 18:00:00 90. 90.
1966-09-05 00:00:00 90. 90.
1966-09-05 06:00:00 90. 90.
1966-09-05 12:00:00 90. 90.
1966-09-05 18:00:00 90. 90.
1966-09-06 00:00:00 90. 90.
1966-09-06 06:00:00 65. 65.
1966-09-06 12:00:00 55. 55.
1966-09-06 18:00:00 55. 55.
1966-09-07 00:00:00 40. 40.

top of page Links to source data

Source Source file Format
hurdat_atl tracks1851to2011.txt:939:FAITH HURDAT
atcf bal061966.dat ATCF